Terminal Aerodrome Forecast
Issued by NWS

Home | Current Version | Previous Version | Text Only | Print | Product List | Glossary On
Versions: 1 2 3 4 5 6 7 8 9 10 11 12 13
000
FTUS44 KTSA 242330
TAFBVO
TAF
KBVO 242330Z 2500/2524 13007KT P6SM FEW250
     FM250200 VRB03KT P6SM SCT250
     FM250900 VRB03KT P6SM BKN050 PROB30 2509/2515 5SM -TSRA
      BKN050CB
     FM251500 13007KT P6SM BKN050 PROB30 2515/2521 5SM -TSRA
      BKN040CB=

USA.gov is the U.S. government's official web portal to all federal, state and local government web resources and services.